sensor_id;sensor_type;location;lat;lon;timestamp;pressure;altitude;pressure_sealevel;temperature;humidity
57250;BME280;43102;52.014;-0.680;2022-08-03T00:00:00;100432;;;21.79;68.31
57250;BME280;43102;52.014;-0.680;2022-08-03T00:01:00;100432;;;21.79;68.31
57250;BME280;43102;52.014;-0.680;2022-08-03T00:02:00;100432;;;21.79;68.31
57250;BME280;43102;52.014;-0.680;2022-08-03T00:03:00;100432;;;21.79;68.31
57250;BME280;43102;52.014;-0.680;2022-08-03T00:04:00;100430;;;21.68;69.18
57250;BME280;43102;52.014;-0.680;2022-08-03T00:05:00;100430;;;21.68;69.18
57250;BME280;43102;52.014;-0.680;2022-08-03T00:06:00;100430;;;21.68;69.18
57250;BME280;43102;52.014;-0.680;2022-08-03T00:07:00;100430;;;21.68;69.18
57250;BME280;43102;52.014;-0.680;2022-08-03T00:08:00;100430;;;21.68;69.18
57250;BME280;43102;52.014;-0.680;2022-08-03T00:09:00;100425;;;21.63;69.23
57250;BME280;43102;52.014;-0.680;2022-08-03T00:10:00;100425;;;21.63;69.23
57250;BME280;43102;52.014;-0.680;2022-08-03T00:11:00;100425;;;21.63;69.23
57250;BME280;43102;52.014;-0.680;2022-08-03T00:12:00;100425;;;21.63;69.23
57250;BME280;43102;52.014;-0.680;2022-08-03T00:13:00;100425;;;21.63;69.23
57250;BME280;43102;52.014;-0.680;2022-08-03T00:14:00;100430;;;21.60;69.18
57250;BME280;43102;52.014;-0.680;2022-08-03T00:15:00;100430;;;21.60;69.18
57250;BME280;43102;52.014;-0.680;2022-08-03T00:16:00;100430;;;21.60;69.18
57250;BME280;43102;52.014;-0.680;2022-08-03T00:17:00;100430;;;21.60;69.18
57250;BME280;43102;52.014;-0.680;2022-08-03T00:18:00;100430;;;21.60;69.18
57250;BME280;43102;52.014;-0.680;2022-08-03T00:19:00;100424;;;21.49;69.62
57250;BME280;43102;52.014;-0.680;2022-08-03T00:20:00;100424;;;21.49;69.62
57250;BME280;43102;52.014;-0.680;2022-08-03T00:21:00;100424;;;21.49;69.62
57250;BME280;43102;52.014;-0.680;2022-08-03T00:22:00;100424;;;21.49;69.62
57250;BME280;43102;52.014;-0.680;2022-08-03T00:23:00;100424;;;21.49;69.62
57250;BME280;43102;52.014;-0.680;2022-08-03T00:24:00;100419;;;21.45;69.50
57250;BME280;43102;52.014;-0.680;2022-08-03T00:25:00;100419;;;21.45;69.50
57250;BME280;43102;52.014;-0.680;2022-08-03T00:26:00;100419;;;21.45;69.50
57250;BME280;43102;52.014;-0.680;2022-08-03T00:27:00;100419;;;21.45;69.50
57250;BME280;43102;52.014;-0.680;2022-08-03T00:28:00;100419;;;21.45;69.50
57250;BME280;43102;52.014;-0.680;2022-08-03T00:29:00;100414;;;21.28;70.18
57250;BME280;43102;52.014;-0.680;2022-08-03T00:30:00;100414;;;21.28;70.18
57250;BME280;43102;52.014;-0.680;2022-08-03T00:31:00;100414;;;21.28;70.18
57250;BME280;43102;52.014;-0.680;2022-08-03T00:32:00;100414;;;21.28;70.18
57250;BME280;43102;52.014;-0.680;2022-08-03T00:33:00;100414;;;21.28;70.18
57250;BME280;43102;52.014;-0.680;2022-08-03T00:34:00;100407;;;21.18;70.63
57250;BME280;43102;52.014;-0.680;2022-08-03T00:35:00;100407;;;21.18;70.63
57250;BME280;43102;52.014;-0.680;2022-08-03T00:36:00;100407;;;21.18;70.63
57250;BME280;43102;52.014;-0.680;2022-08-03T00:37:00;100407;;;21.18;70.63
57250;BME280;43102;52.014;-0.680;2022-08-03T00:38:00;100407;;;21.18;70.63
57250;BME280;43102;52.014;-0.680;2022-08-03T00:39:00;100397;;;21.12;70.79
57250;BME280;43102;52.014;-0.680;2022-08-03T00:40:00;100397;;;21.12;70.79
57250;BME280;43102;52.014;-0.680;2022-08-03T00:41:00;100397;;;21.12;70.79
57250;BME280;43102;52.014;-0.680;2022-08-03T00:42:02;100397;;;21.12;70.79
57250;BME280;43102;52.014;-0.680;2022-08-03T00:43:00;100397;;;21.12;70.79
57250;BME280;43102;52.014;-0.680;2022-08-03T00:44:00;100400;;;21.16;70.43
57250;BME280;43102;52.014;-0.680;2022-08-03T00:45:00;100400;;;21.16;70.43
57250;BME280;43102;52.014;-0.680;2022-08-03T00:46:00;100400;;;21.16;70.43
57250;BME280;43102;52.014;-0.680;2022-08-03T00:47:00;100400;;;21.16;70.43
57250;BME280;43102;52.014;-0.680;2022-08-03T00:48:00;100400;;;21.16;70.43
57250;BME280;43102;52.014;-0.680;2022-08-03T00:49:00;100399;;;21.13;70.43
57250;BME280;43102;52.014;-0.680;2022-08-03T00:50:00;100399;;;21.13;70.43
57250;BME280;43102;52.014;-0.680;2022-08-03T00:52:00;100399;;;21.13;70.43
57250;BME280;43102;52.014;-0.680;2022-08-03T00:53:00;100399;;;21.13;70.43
57250;BME280;43102;52.014;-0.680;2022-08-03T00:54:00;100391;;;21.06;70.64
57250;BME280;43102;52.014;-0.680;2022-08-03T00:55:00;100391;;;21.06;70.64
57250;BME280;43102;52.014;-0.680;2022-08-03T00:56:00;100391;;;21.06;70.64
57250;BME280;43102;52.014;-0.680;2022-08-03T00:57:00;100391;;;21.06;70.64
57250;BME280;43102;52.014;-0.680;2022-08-03T00:58:00;100391;;;21.06;70.64
57250;BME280;43102;52.014;-0.680;2022-08-03T00:59:00;100390;;;21.04;70.85
57250;BME280;43102;52.014;-0.680;2022-08-03T01:00:00;100390;;;21.04;70.85
57250;BME280;43102;52.014;-0.680;2022-08-03T01:01:00;100390;;;21.04;70.85
57250;BME280;43102;52.014;-0.680;2022-08-03T01:02:00;100390;;;21.04;70.85
57250;BME280;43102;52.014;-0.680;2022-08-03T01:03:00;100390;;;21.04;70.85
57250;BME280;43102;52.014;-0.680;2022-08-03T01:04:00;100393;;;21.04;70.89
57250;BME280;43102;52.014;-0.680;2022-08-03T01:05:00;100393;;;21.04;70.89
57250;BME280;43102;52.014;-0.680;2022-08-03T01:06:11;100393;;;21.04;70.89
57250;BME280;43102;52.014;-0.680;2022-08-03T01:09:18;100395;;;21.07;70.57
57250;BME280;43102;52.014;-0.680;2022-08-03T01:12:02;100395;;;21.07;70.57
57250;BME280;43102;52.014;-0.680;2022-08-03T01:14:05;100392;;;21.01;71.06
57250;BME280;43102;52.014;-0.680;2022-08-03T01:15:12;100392;;;21.01;71.06
57250;BME280;43102;52.014;-0.680;2022-08-03T01:17:01;100392;;;21.01;71.06
57250;BME280;43102;52.014;-0.680;2022-08-03T01:18:09;100392;;;21.01;71.06
57250;BME280;43102;52.014;-0.680;2022-08-03T01:20:02;100387;;;21.01;71.23
57250;BME280;43102;52.014;-0.680;2022-08-03T01:21:00;100387;;;21.01;71.23
57250;BME280;43102;52.014;-0.680;2022-08-03T01:24:02;100387;;;21.03;71.32
57250;BME280;43102;52.014;-0.680;2022-08-03T01:25:40;100387;;;21.03;71.32
57250;BME280;43102;52.014;-0.680;2022-08-03T01:30:07;100390;;;21.09;70.83
57250;BME280;43102;52.014;-0.680;2022-08-03T01:31:00;100390;;;21.09;70.83
57250;BME280;43102;52.014;-0.680;2022-08-03T01:32:01;100390;;;21.09;70.83
57250;BME280;43102;52.014;-0.680;2022-08-03T01:33:02;100390;;;21.09;70.83
57250;BME280;43102;52.014;-0.680;2022-08-03T01:34:01;100386;;;21.00;71.58
57250;BME280;43102;52.014;-0.680;2022-08-03T01:35:01;100386;;;21.00;71.58
57250;BME280;43102;52.014;-0.680;2022-08-03T01:36:01;100386;;;21.00;71.58
57250;BME280;43102;52.014;-0.680;2022-08-03T01:37:00;100386;;;21.00;71.58
57250;BME280;43102;52.014;-0.680;2022-08-03T01:38:02;100386;;;21.00;71.58
57250;BME280;43102;52.014;-0.680;2022-08-03T01:39:00;100386;;;21.01;70.96
57250;BME280;43102;52.014;-0.680;2022-08-03T01:40:00;100386;;;21.01;70.96
57250;BME280;43102;52.014;-0.680;2022-08-03T01:41:03;100386;;;21.01;70.96
57250;BME280;43102;52.014;-0.680;2022-08-03T01:42:00;100386;;;21.01;70.96
57250;BME280;43102;52.014;-0.680;2022-08-03T01:43:01;100386;;;21.01;70.96
57250;BME280;43102;52.014;-0.680;2022-08-03T01:44:00;100379;;;20.96;71.28
57250;BME280;43102;52.014;-0.680;2022-08-03T01:45:00;100379;;;20.96;71.28
57250;BME280;43102;52.014;-0.680;2022-08-03T01:46:00;100379;;;20.96;71.28
57250;BME280;43102;52.014;-0.680;2022-08-03T01:47:00;100379;;;20.96;71.28
57250;BME280;43102;52.014;-0.680;2022-08-03T01:48:00;100379;;;20.96;71.28
57250;BME280;43102;52.014;-0.680;2022-08-03T01:49:00;100386;;;20.92;71.24
57250;BME280;43102;52.014;-0.680;2022-08-03T01:50:00;100386;;;20.92;71.24
57250;BME280;43102;52.014;-0.680;2022-08-03T01:51:00;100386;;;20.92;71.24
57250;BME280;43102;52.014;-0.680;2022-08-03T01:52:00;100386;;;20.92;71.24
57250;BME280;43102;52.014;-0.680;2022-08-03T01:53:00;100386;;;20.92;71.24
57250;BME280;43102;52.014;-0.680;2022-08-03T01:54:00;100378;;;20.89;71.53
57250;BME280;43102;52.014;-0.680;2022-08-03T01:55:00;100378;;;20.89;71.53
57250;BME280;43102;52.014;-0.680;2022-08-03T01:56:00;100378;;;20.89;71.53
57250;BME280;43102;52.014;-0.680;2022-08-03T01:57:00;100378;;;20.89;71.53
57250;BME280;43102;52.014;-0.680;2022-08-03T01:58:01;100378;;;20.89;71.53
57250;BME280;43102;52.014;-0.680;2022-08-03T01:59:00;100375;;;20.85;71.55
57250;BME280;43102;52.014;-0.680;2022-08-03T02:00:00;100375;;;20.85;71.55
57250;BME280;43102;52.014;-0.680;2022-08-03T02:01:00;100375;;;20.85;71.55
57250;BME280;43102;52.014;-0.680;2022-08-03T02:02:00;100375;;;20.85;71.55
57250;BME280;43102;52.014;-0.680;2022-08-03T02:03:00;100375;;;20.85;71.55
57250;BME280;43102;52.014;-0.680;2022-08-03T02:04:00;100369;;;20.79;72.29
57250;BME280;43102;52.014;-0.680;2022-08-03T02:05:00;100369;;;20.79;72.29
57250;BME280;43102;52.014;-0.680;2022-08-03T02:06:00;100369;;;20.79;72.29
57250;BME280;43102;52.014;-0.680;2022-08-03T02:07:00;100369;;;20.79;72.29
57250;BME280;43102;52.014;-0.680;2022-08-03T02:08:00;100369;;;20.79;72.29
57250;BME280;43102;52.014;-0.680;2022-08-03T02:09:00;100364;;;20.84;71.92
57250;BME280;43102;52.014;-0.680;2022-08-03T02:10:00;100364;;;20.84;71.92
57250;BME280;43102;52.014;-0.680;2022-08-03T02:11:00;100364;;;20.84;71.92
57250;BME280;43102;52.014;-0.680;2022-08-03T02:12:00;100364;;;20.84;71.92
57250;BME280;43102;52.014;-0.680;2022-08-03T02:13:00;100364;;;20.84;71.92
57250;BME280;43102;52.014;-0.680;2022-08-03T02:14:01;100357;;;20.76;72.39
57250;BME280;43102;52.014;-0.680;2022-08-03T02:15:00;100357;;;20.76;72.39
57250;BME280;43102;52.014;-0.680;2022-08-03T02:16:00;100357;;;20.76;72.39
57250;BME280;43102;52.014;-0.680;2022-08-03T02:17:00;100357;;;20.76;72.39
57250;BME280;43102;52.014;-0.680;2022-08-03T02:18:00;100357;;;20.76;72.39
57250;BME280;43102;52.014;-0.680;2022-08-03T02:19:00;100358;;;20.73;72.58
57250;BME280;43102;52.014;-0.680;2022-08-03T02:20:00;100358;;;20.73;72.58
57250;BME280;43102;52.014;-0.680;2022-08-03T02:21:00;100358;;;20.73;72.58
57250;BME280;43102;52.014;-0.680;2022-08-03T02:22:00;100358;;;20.73;72.58
57250;BME280;43102;52.014;-0.680;2022-08-03T02:23:00;100358;;;20.73;72.58
57250;BME280;43102;52.014;-0.680;2022-08-03T02:24:00;100365;;;20.74;72.56
57250;BME280;43102;52.014;-0.680;2022-08-03T02:25:00;100365;;;20.74;72.56
57250;BME280;43102;52.014;-0.680;2022-08-03T02:26:01;100365;;;20.74;72.56
57250;BME280;43102;52.014;-0.680;2022-08-03T02:27:00;100365;;;20.74;72.56
57250;BME280;43102;52.014;-0.680;2022-08-03T02:28:01;100365;;;20.74;72.56
57250;BME280;43102;52.014;-0.680;2022-08-03T02:29:01;100370;;;20.78;72.44
57250;BME280;43102;52.014;-0.680;2022-08-03T02:30:02;100370;;;20.78;72.44
57250;BME280;43102;52.014;-0.680;2022-08-03T02:31:01;100370;;;20.78;72.44
57250;BME280;43102;52.014;-0.680;2022-08-03T02:32:00;100370;;;20.78;72.44
57250;BME280;43102;52.014;-0.680;2022-08-03T02:33:00;100370;;;20.78;72.44
57250;BME280;43102;52.014;-0.680;2022-08-03T02:34:00;100368;;;20.73;72.82
57250;BME280;43102;52.014;-0.680;2022-08-03T02:35:00;100368;;;20.73;72.82
57250;BME280;43102;52.014;-0.680;2022-08-03T02:36:00;100368;;;20.73;72.82
57250;BME280;43102;52.014;-0.680;2022-08-03T02:37:00;100368;;;20.73;72.82
57250;BME280;43102;52.014;-0.680;2022-08-03T02:38:01;100368;;;20.73;72.82
57250;BME280;43102;52.014;-0.680;2022-08-03T02:39:00;100369;;;20.79;72.56
57250;BME280;43102;52.014;-0.680;2022-08-03T02:40:00;100369;;;20.79;72.56
57250;BME280;43102;52.014;-0.680;2022-08-03T02:41:00;100369;;;20.79;72.56
57250;BME280;43102;52.014;-0.680;2022-08-03T02:42:00;100369;;;20.79;72.56
57250;BME280;43102;52.014;-0.680;2022-08-03T02:43:01;100369;;;20.79;72.56
57250;BME280;43102;52.014;-0.680;2022-08-03T02:44:01;100368;;;20.83;72.33
57250;BME280;43102;52.014;-0.680;2022-08-03T02:45:01;100368;;;20.83;72.33
57250;BME280;43102;52.014;-0.680;2022-08-03T02:46:00;100368;;;20.83;72.33
57250;BME280;43102;52.014;-0.680;2022-08-03T02:47:01;100368;;;20.83;72.33
57250;BME280;43102;52.014;-0.680;2022-08-03T02:48:00;100368;;;20.83;72.33
57250;BME280;43102;52.014;-0.680;2022-08-03T02:49:00;100362;;;20.82;72.64
57250;BME280;43102;52.014;-0.680;2022-08-03T02:50:00;100362;;;20.82;72.64
57250;BME280;43102;52.014;-0.680;2022-08-03T02:51:00;100362;;;20.82;72.64
57250;BME280;43102;52.014;-0.680;2022-08-03T02:52:00;100362;;;20.82;72.64
57250;BME280;43102;52.014;-0.680;2022-08-03T02:53:00;100362;;;20.82;72.64
57250;BME280;43102;52.014;-0.680;2022-08-03T02:54:01;100363;;;20.88;72.51
57250;BME280;43102;52.014;-0.680;2022-08-03T02:55:00;100363;;;20.88;72.51
57250;BME280;43102;52.014;-0.680;2022-08-03T02:56:00;100363;;;20.88;72.51
57250;BME280;43102;52.014;-0.680;2022-08-03T02:57:00;100363;;;20.88;72.51
57250;BME280;43102;52.014;-0.680;2022-08-03T02:58:00;100363;;;20.88;72.51
57250;BME280;43102;52.014;-0.680;2022-08-03T02:59:00;100362;;;20.89;72.29
57250;BME280;43102;52.014;-0.680;2022-08-03T03:00:00;100362;;;20.89;72.29
57250;BME280;43102;52.014;-0.680;2022-08-03T03:01:00;100362;;;20.89;72.29
57250;BME280;43102;52.014;-0.680;2022-08-03T03:02:00;100362;;;20.89;72.29
57250;BME280;43102;52.014;-0.680;2022-08-03T03:03:00;100362;;;20.89;72.29
57250;BME280;43102;52.014;-0.680;2022-08-03T03:04:00;100365;;;20.84;72.79
57250;BME280;43102;52.014;-0.680;2022-08-03T03:05:00;100365;;;20.84;72.79
57250;BME280;43102;52.014;-0.680;2022-08-03T03:06:00;100365;;;20.84;72.79
57250;BME280;43102;52.014;-0.680;2022-08-03T03:07:00;100365;;;20.84;72.79
57250;BME280;43102;52.014;-0.680;2022-08-03T03:08:00;100365;;;20.84;72.79
57250;BME280;43102;52.014;-0.680;2022-08-03T03:09:00;100362;;;20.87;72.52
57250;BME280;43102;52.014;-0.680;2022-08-03T03:10:00;100362;;;20.87;72.52
57250;BME280;43102;52.014;-0.680;2022-08-03T03:11:00;100362;;;20.87;72.52
57250;BME280;43102;52.014;-0.680;2022-08-03T03:12:00;100362;;;20.87;72.52
57250;BME280;43102;52.014;-0.680;2022-08-03T03:13:00;100362;;;20.87;72.52
57250;BME280;43102;52.014;-0.680;2022-08-03T03:14:00;100360;;;20.84;72.48
57250;BME280;43102;52.014;-0.680;2022-08-03T03:15:00;100360;;;20.84;72.48
57250;BME280;43102;52.014;-0.680;2022-08-03T03:16:00;100360;;;20.84;72.48
57250;BME280;43102;52.014;-0.680;2022-08-03T03:17:00;100360;;;20.84;72.48
57250;BME280;43102;52.014;-0.680;2022-08-03T03:18:00;100360;;;20.84;72.48
57250;BME280;43102;52.014;-0.680;2022-08-03T03:19:00;100360;;;20.90;72.12
57250;BME280;43102;52.014;-0.680;2022-08-03T03:20:00;100360;;;20.90;72.12
57250;BME280;43102;52.014;-0.680;2022-08-03T03:21:00;100360;;;20.90;72.12
57250;BME280;43102;52.014;-0.680;2022-08-03T03:22:00;100360;;;20.90;72.12
57250;BME280;43102;52.014;-0.680;2022-08-03T03:23:00;100360;;;20.90;72.12
57250;BME280;43102;52.014;-0.680;2022-08-03T03:24:00;100369;;;20.91;72.31
57250;BME280;43102;52.014;-0.680;2022-08-03T03:25:00;100369;;;20.91;72.31
57250;BME280;43102;52.014;-0.680;2022-08-03T03:26:00;100369;;;20.91;72.31
57250;BME280;43102;52.014;-0.680;2022-08-03T03:27:00;100369;;;20.91;72.31
57250;BME280;43102;52.014;-0.680;2022-08-03T03:28:00;100369;;;20.91;72.31
57250;BME280;43102;52.014;-0.680;2022-08-03T03:29:00;100359;;;20.91;72.37
57250;BME280;43102;52.014;-0.680;2022-08-03T03:30:00;100359;;;20.91;72.37
57250;BME280;43102;52.014;-0.680;2022-08-03T03:31:00;100359;;;20.91;72.37
57250;BME280;43102;52.014;-0.680;2022-08-03T03:32:00;100359;;;20.91;72.37
57250;BME280;43102;52.014;-0.680;2022-08-03T03:33:00;100359;;;20.91;72.37
57250;BME280;43102;52.014;-0.680;2022-08-03T03:34:00;100361;;;20.88;72.82
57250;BME280;43102;52.014;-0.680;2022-08-03T03:35:00;100361;;;20.88;72.82
57250;BME280;43102;52.014;-0.680;2022-08-03T03:36:00;100361;;;20.88;72.82
57250;BME280;43102;52.014;-0.680;2022-08-03T03:37:00;100361;;;20.88;72.82
57250;BME280;43102;52.014;-0.680;2022-08-03T03:38:00;100361;;;20.88;72.82
57250;BME280;43102;52.014;-0.680;2022-08-03T03:39:00;100355;;;20.91;72.14
57250;BME280;43102;52.014;-0.680;2022-08-03T03:40:00;100355;;;20.91;72.14
57250;BME280;43102;52.014;-0.680;2022-08-03T03:41:00;100355;;;20.91;72.14
57250;BME280;43102;52.014;-0.680;2022-08-03T03:42:00;100355;;;20.91;72.14
57250;BME280;43102;52.014;-0.680;2022-08-03T03:43:00;100355;;;20.91;72.14
57250;BME280;43102;52.014;-0.680;2022-08-03T03:44:00;100356;;;20.88;72.55
57250;BME280;43102;52.014;-0.680;2022-08-03T03:45:03;100356;;;20.88;72.55
57250;BME280;43102;52.014;-0.680;2022-08-03T03:46:00;100356;;;20.88;72.55
57250;BME280;43102;52.014;-0.680;2022-08-03T03:47:00;100356;;;20.88;72.55
57250;BME280;43102;52.014;-0.680;2022-08-03T03:48:00;100356;;;20.88;72.55
57250;BME280;43102;52.014;-0.680;2022-08-03T03:49:00;100355;;;20.85;73.18
57250;BME280;43102;52.014;-0.680;2022-08-03T03:50:00;100355;;;20.85;73.18
57250;BME280;43102;52.014;-0.680;2022-08-03T03:51:00;100355;;;20.85;73.18
57250;BME280;43102;52.014;-0.680;2022-08-03T03:52:00;100355;;;20.85;73.18
57250;BME280;43102;52.014;-0.680;2022-08-03T03:53:00;100355;;;20.85;73.18
57250;BME280;43102;52.014;-0.680;2022-08-03T03:54:01;100357;;;20.94;72.55
57250;BME280;43102;52.014;-0.680;2022-08-03T03:55:00;100357;;;20.94;72.55
57250;BME280;43102;52.014;-0.680;2022-08-03T03:56:00;100357;;;20.94;72.55
57250;BME280;43102;52.014;-0.680;2022-08-03T03:57:00;100357;;;20.94;72.55
57250;BME280;43102;52.014;-0.680;2022-08-03T03:58:00;100357;;;20.94;72.55
57250;BME280;43102;52.014;-0.680;2022-08-03T03:59:00;100364;;;20.93;72.75
57250;BME280;43102;52.014;-0.680;2022-08-03T04:00:00;100364;;;20.93;72.75
57250;BME280;43102;52.014;-0.680;2022-08-03T04:01:00;100364;;;20.93;72.75
57250;BME280;43102;52.014;-0.680;2022-08-03T04:02:00;100364;;;20.93;72.75
57250;BME280;43102;52.014;-0.680;2022-08-03T04:03:00;100364;;;20.93;72.75
57250;BME280;43102;52.014;-0.680;2022-08-03T04:04:00;100371;;;20.90;72.83
57250;BME280;43102;52.014;-0.680;2022-08-03T04:05:00;100371;;;20.90;72.83
57250;BME280;43102;52.014;-0.680;2022-08-03T04:06:00;100371;;;20.90;72.83
57250;BME280;43102;52.014;-0.680;2022-08-03T04:07:00;100371;;;20.90;72.83
57250;BME280;43102;52.014;-0.680;2022-08-03T04:08:02;100371;;;20.90;72.83
57250;BME280;43102;52.014;-0.680;2022-08-03T04:09:00;100375;;;20.93;72.82
57250;BME280;43102;52.014;-0.680;2022-08-03T04:10:00;100375;;;20.93;72.82
57250;BME280;43102;52.014;-0.680;2022-08-03T04:11:02;100375;;;20.93;72.82
57250;BME280;43102;52.014;-0.680;2022-08-03T04:12:00;100375;;;20.93;72.82
57250;BME280;43102;52.014;-0.680;2022-08-03T04:13:00;100375;;;20.93;72.82
57250;BME280;43102;52.014;-0.680;2022-08-03T04:15:00;100372;;;20.93;72.57
57250;BME280;43102;52.014;-0.680;2022-08-03T04:16:00;100372;;;20.93;72.57
57250;BME280;43102;52.014;-0.680;2022-08-03T04:17:01;100372;;;20.93;72.57
57250;BME280;43102;52.014;-0.680;2022-08-03T04:18:00;100372;;;20.93;72.57
57250;BME280;43102;52.014;-0.680;2022-08-03T04:19:01;100368;;;20.92;72.92
57250;BME280;43102;52.014;-0.680;2022-08-03T04:20:00;100368;;;20.92;72.92
57250;BME280;43102;52.014;-0.680;2022-08-03T04:21:00;100368;;;20.92;72.92
57250;BME280;43102;52.014;-0.680;2022-08-03T04:22:01;100368;;;20.92;72.92
57250;BME280;43102;52.014;-0.680;2022-08-03T04:23:00;100368;;;20.92;72.92
57250;BME280;43102;52.014;-0.680;2022-08-03T04:24:01;100370;;;20.91;72.74
57250;BME280;43102;52.014;-0.680;2022-08-03T04:25:00;100370;;;20.91;72.74
57250;BME280;43102;52.014;-0.680;2022-08-03T04:26:01;100370;;;20.91;72.74
57250;BME280;43102;52.014;-0.680;2022-08-03T04:27:01;100370;;;20.91;72.74
57250;BME280;43102;52.014;-0.680;2022-08-03T04:28:00;100370;;;20.91;72.74
57250;BME280;43102;52.014;-0.680;2022-08-03T04:29:00;100375;;;20.95;72.49
57250;BME280;43102;52.014;-0.680;2022-08-03T04:30:01;100375;;;20.95;72.49
57250;BME280;43102;52.014;-0.680;2022-08-03T04:31:00;100375;;;20.95;72.49
57250;BME280;43102;52.014;-0.680;2022-08-03T04:32:00;100375;;;20.95;72.49
57250;BME280;43102;52.014;-0.680;2022-08-03T04:33:00;100375;;;20.95;72.49
57250;BME280;43102;52.014;-0.680;2022-08-03T04:34:00;100379;;;20.88;73.02
57250;BME280;43102;52.014;-0.680;2022-08-03T04:35:00;100379;;;20.88;73.02
57250;BME280;43102;52.014;-0.680;2022-08-03T04:36:00;100379;;;20.88;73.02
57250;BME280;43102;52.014;-0.680;2022-08-03T04:37:00;100379;;;20.88;73.02
57250;BME280;43102;52.014;-0.680;2022-08-03T04:38:01;100379;;;20.88;73.02
57250;BME280;43102;52.014;-0.680;2022-08-03T04:40:00;100372;;;20.89;72.73
57250;BME280;43102;52.014;-0.680;2022-08-03T04:41:00;100372;;;20.89;72.73
57250;BME280;43102;52.014;-0.680;2022-08-03T04:42:01;100372;;;20.89;72.73
57250;BME280;43102;52.014;-0.680;2022-08-03T04:43:00;100372;;;20.89;72.73
57250;BME280;43102;52.014;-0.680;2022-08-03T04:44:00;100379;;;20.89;72.76
57250;BME280;43102;52.014;-0.680;2022-08-03T04:45:00;100379;;;20.89;72.76
57250;BME280;43102;52.014;-0.680;2022-08-03T04:46:00;100379;;;20.89;72.76
57250;BME280;43102;52.014;-0.680;2022-08-03T04:47:00;100379;;;20.89;72.76
57250;BME280;43102;52.014;-0.680;2022-08-03T04:48:00;100379;;;20.89;72.76
57250;BME280;43102;52.014;-0.680;2022-08-03T04:49:00;100381;;;20.86;72.80
57250;BME280;43102;52.014;-0.680;2022-08-03T04:50:00;100381;;;20.86;72.80
57250;BME280;43102;52.014;-0.680;2022-08-03T04:51:00;100381;;;20.86;72.80
57250;BME280;43102;52.014;-0.680;2022-08-03T04:52:00;100381;;;20.86;72.80
57250;BME280;43102;52.014;-0.680;2022-08-03T04:53:00;100381;;;20.86;72.80
57250;BME280;43102;52.014;-0.680;2022-08-03T04:54:00;100387;;;20.81;73.30
57250;BME280;43102;52.014;-0.680;2022-08-03T04:55:00;100387;;;20.81;73.30
57250;BME280;43102;52.014;-0.680;2022-08-03T04:56:03;100387;;;20.81;73.30
57250;BME280;43102;52.014;-0.680;2022-08-03T04:57:00;100387;;;20.81;73.30
57250;BME280;43102;52.014;-0.680;2022-08-03T04:58:00;100387;;;20.81;73.30
57250;BME280;43102;52.014;-0.680;2022-08-03T04:59:00;100381;;;20.83;73.18
57250;BME280;43102;52.014;-0.680;2022-08-03T05:00:00;100381;;;20.83;73.18
57250;BME280;43102;52.014;-0.680;2022-08-03T05:01:00;100381;;;20.83;73.18
57250;BME280;43102;52.014;-0.680;2022-08-03T05:02:00;100381;;;20.83;73.18
57250;BME280;43102;52.014;-0.680;2022-08-03T05:03:00;100381;;;20.83;73.18
57250;BME280;43102;52.014;-0.680;2022-08-03T05:04:00;100385;;;20.83;73.17
57250;BME280;43102;52.014;-0.680;2022-08-03T05:05:00;100385;;;20.83;73.17
57250;BME280;43102;52.014;-0.680;2022-08-03T05:06:00;100385;;;20.83;73.17
57250;BME280;43102;52.014;-0.680;2022-08-03T05:07:00;100385;;;20.83;73.17
57250;BME280;43102;52.014;-0.680;2022-08-03T05:08:00;100385;;;20.83;73.17
57250;BME280;43102;52.014;-0.680;2022-08-03T05:09:00;100382;;;20.87;72.98
57250;BME280;43102;52.014;-0.680;2022-08-03T05:10:00;100382;;;20.87;72.98
57250;BME280;43102;52.014;-0.680;2022-08-03T05:11:00;100382;;;20.87;72.98
57250;BME280;43102;52.014;-0.680;2022-08-03T05:12:00;100382;;;20.87;72.98
57250;BME280;43102;52.014;-0.680;2022-08-03T05:13:00;100382;;;20.87;72.98
57250;BME280;43102;52.014;-0.680;2022-08-03T05:14:00;100380;;;20.88;73.12
57250;BME280;43102;52.014;-0.680;2022-08-03T05:15:00;100380;;;20.88;73.12
57250;BME280;43102;52.014;-0.680;2022-08-03T05:16:00;100380;;;20.88;73.12
57250;BME280;43102;52.014;-0.680;2022-08-03T05:17:00;100380;;;20.88;73.12
57250;BME280;43102;52.014;-0.680;2022-08-03T05:18:00;100380;;;20.88;73.12
57250;BME280;43102;52.014;-0.680;2022-08-03T05:19:00;100382;;;20.92;72.78
57250;BME280;43102;52.014;-0.680;2022-08-03T05:20:00;100382;;;20.92;72.78
57250;BME280;43102;52.014;-0.680;2022-08-03T05:21:00;100382;;;20.92;72.78
57250;BME280;43102;52.014;-0.680;2022-08-03T05:22:00;100382;;;20.92;72.78
57250;BME280;43102;52.014;-0.680;2022-08-03T05:23:00;100382;;;20.92;72.78
57250;BME280;43102;52.014;-0.680;2022-08-03T05:24:00;100389;;;21.01;72.55
57250;BME280;43102;52.014;-0.680;2022-08-03T05:25:00;100389;;;21.01;72.55
57250;BME280;43102;52.014;-0.680;2022-08-03T05:26:00;100389;;;21.01;72.55
57250;BME280;43102;52.014;-0.680;2022-08-03T05:27:00;100389;;;21.01;72.55
57250;BME280;43102;52.014;-0.680;2022-08-03T05:28:00;100389;;;21.01;72.55
57250;BME280;43102;52.014;-0.680;2022-08-03T05:29:00;100391;;;21.05;72.52
57250;BME280;43102;52.014;-0.680;2022-08-03T05:30:00;100391;;;21.05;72.52
57250;BME280;43102;52.014;-0.680;2022-08-03T05:31:00;100391;;;21.05;72.52
57250;BME280;43102;52.014;-0.680;2022-08-03T05:32:00;100391;;;21.05;72.52
57250;BME280;43102;52.014;-0.680;2022-08-03T05:33:00;100391;;;21.05;72.52
57250;BME280;43102;52.014;-0.680;2022-08-03T05:34:00;100396;;;21.01;72.99
57250;BME280;43102;52.014;-0.680;2022-08-03T05:35:00;100396;;;21.01;72.99
57250;BME280;43102;52.014;-0.680;2022-08-03T05:36:00;100396;;;21.01;72.99
57250;BME280;43102;52.014;-0.680;2022-08-03T05:37:00;100396;;;21.01;72.99